sensor_id;sensor_type;location;lat;lon;timestamp;P1;durP1;ratioP1;P2;durP2;ratioP2
55069;SDS011;40967;52.070;8.596;2023-05-10T00:00:11;0.65;;;0.52;;
55069;SDS011;40967;52.070;8.596;2023-05-10T00:02:37;0.67;;;0.50;;
55069;SDS011;40967;52.070;8.596;2023-05-10T00:05:02;0.88;;;0.60;;
55069;SDS011;40967;52.070;8.596;2023-05-10T00:07:28;0.90;;;0.70;;
55069;SDS011;40967;52.070;8.596;2023-05-10T00:09:53;1.17;;;0.77;;
55069;SDS011;40967;52.070;8.596;2023-05-10T00:12:19;0.80;;;0.60;;
55069;SDS011;40967;52.070;8.596;2023-05-10T00:14:44;1.33;;;0.67;;
55069;SDS011;40967;52.070;8.596;2023-05-10T00:17:10;1.40;;;0.80;;
55069;SDS011;40967;52.070;8.596;2023-05-10T00:19:35;0.82;;;0.60;;
55069;SDS011;40967;52.070;8.596;2023-05-10T00:22:01;0.75;;;0.60;;
55069;SDS011;40967;52.070;8.596;2023-05-10T00:24:26;0.70;;;0.52;;
55069;SDS011;40967;52.070;8.596;2023-05-10T00:26:52;0.97;;;0.60;;
55069;SDS011;40967;52.070;8.596;2023-05-10T00:29:17;0.67;;;0.50;;
55069;SDS011;40967;52.070;8.596;2023-05-10T00:31:42;1.00;;;0.60;;
55069;SDS011;40967;52.070;8.596;2023-05-10T00:34:08;0.83;;;0.60;;
55069;SDS011;40967;52.070;8.596;2023-05-10T00:36:33;0.83;;;0.60;;
55069;SDS011;40967;52.070;8.596;2023-05-10T00:38:58;0.70;;;0.50;;
55069;SDS011;40967;52.070;8.596;2023-05-10T00:41:24;1.08;;;0.68;;
55069;SDS011;40967;52.070;8.596;2023-05-10T00:43:49;1.13;;;0.63;;
55069;SDS011;40967;52.070;8.596;2023-05-10T00:46:15;1.00;;;0.70;;
55069;SDS011;40967;52.070;8.596;2023-05-10T00:48:41;1.00;;;0.70;;
55069;SDS011;40967;52.070;8.596;2023-05-10T00:51:07;1.08;;;0.70;;
55069;SDS011;40967;52.070;8.596;2023-05-10T00:53:32;0.90;;;0.70;;
55069;SDS011;40967;52.070;8.596;2023-05-10T00:55:59;1.10;;;0.77;;
55069;SDS011;40967;52.070;8.596;2023-05-10T00:58:25;1.10;;;0.60;;
55069;SDS011;40967;52.070;8.596;2023-05-10T01:00:53;1.15;;;0.70;;
55069;SDS011;40967;52.070;8.596;2023-05-10T01:03:21;1.20;;;0.80;;
55069;SDS011;40967;52.070;8.596;2023-05-10T01:05:46;1.30;;;0.90;;
55069;SDS011;40967;52.070;8.596;2023-05-10T01:08:12;0.90;;;0.80;;
55069;SDS011;40967;52.070;8.596;2023-05-10T01:10:37;1.23;;;0.77;;
55069;SDS011;40967;52.070;8.596;2023-05-10T01:13:03;1.00;;;0.60;;
55069;SDS011;40967;52.070;8.596;2023-05-10T01:15:28;0.85;;;0.70;;
55069;SDS011;40967;52.070;8.596;2023-05-10T01:17:55;0.90;;;0.70;;
55069;SDS011;40967;52.070;8.596;2023-05-10T01:20:21;1.60;;;0.80;;
55069;SDS011;40967;52.070;8.596;2023-05-10T01:33:30;0.90;;;0.60;;
55069;SDS011;40967;52.070;8.596;2023-05-10T01:36:22;1.00;;;0.60;;
55069;SDS011;40967;52.070;8.596;2023-05-10T01:39:01;1.07;;;0.70;;
55069;SDS011;40967;52.070;8.596;2023-05-10T01:41:55;1.20;;;0.70;;
55069;SDS011;40967;52.070;8.596;2023-05-10T01:44:35;1.10;;;0.70;;
55069;SDS011;40967;52.070;8.596;2023-05-10T01:49:41;1.33;;;0.70;;
55069;SDS011;40967;52.070;8.596;2023-05-10T01:52:12;1.27;;;0.70;;
55069;SDS011;40967;52.070;8.596;2023-05-10T01:54:44;1.77;;;1.02;;
55069;SDS011;40967;52.070;8.596;2023-05-10T01:57:15;1.80;;;0.98;;
55069;SDS011;40967;52.070;8.596;2023-05-10T01:59:42;1.13;;;0.77;;
55069;SDS011;40967;52.070;8.596;2023-05-10T02:02:10;1.63;;;0.90;;
55069;SDS011;40967;52.070;8.596;2023-05-10T02:04:38;1.27;;;0.82;;
55069;SDS011;40967;52.070;8.596;2023-05-10T02:07:05;2.03;;;1.13;;
55069;SDS011;40967;52.070;8.596;2023-05-10T02:09:32;1.77;;;1.10;;
55069;SDS011;40967;52.070;8.596;2023-05-10T02:12:02;1.87;;;1.17;;
55069;SDS011;40967;52.070;8.596;2023-05-10T02:14:30;3.33;;;2.10;;
55069;SDS011;40967;52.070;8.596;2023-05-10T02:16:59;2.42;;;1.48;;
55069;SDS011;40967;52.070;8.596;2023-05-10T02:19:26;2.35;;;1.45;;
55069;SDS011;40967;52.070;8.596;2023-05-10T02:21:55;1.77;;;1.17;;
55069;SDS011;40967;52.070;8.596;2023-05-10T02:24:22;2.20;;;1.30;;
55069;SDS011;40967;52.070;8.596;2023-05-10T02:26:49;2.30;;;1.40;;
55069;SDS011;40967;52.070;8.596;2023-05-10T02:29:18;1.75;;;1.17;;
55069;SDS011;40967;52.070;8.596;2023-05-10T02:31:44;1.60;;;1.00;;
55069;SDS011;40967;52.070;8.596;2023-05-10T02:34:10;1.55;;;1.02;;
55069;SDS011;40967;52.070;8.596;2023-05-10T02:36:37;1.50;;;0.88;;
55069;SDS011;40967;52.070;8.596;2023-05-10T02:39:04;1.98;;;1.00;;
55069;SDS011;40967;52.070;8.596;2023-05-10T02:41:34;1.70;;;1.15;;
55069;SDS011;40967;52.070;8.596;2023-05-10T02:44:01;1.55;;;0.90;;
55069;SDS011;40967;52.070;8.596;2023-05-10T02:46:28;1.33;;;0.90;;
55069;SDS011;40967;52.070;8.596;2023-05-10T02:48:55;1.07;;;0.77;;
55069;SDS011;40967;52.070;8.596;2023-05-10T02:51:20;0.90;;;0.70;;
55069;SDS011;40967;52.070;8.596;2023-05-10T02:53:52;1.13;;;0.60;;
55069;SDS011;40967;52.070;8.596;2023-05-10T02:56:23;0.70;;;0.50;;
55069;SDS011;40967;52.070;8.596;2023-05-10T02:58:53;0.75;;;0.57;;
55069;SDS011;40967;52.070;8.596;2023-05-10T03:01:19;0.75;;;0.52;;
55069;SDS011;40967;52.070;8.596;2023-05-10T03:03:45;0.93;;;0.68;;
55069;SDS011;40967;52.070;8.596;2023-05-10T03:06:10;0.70;;;0.50;;
55069;SDS011;40967;52.070;8.596;2023-05-10T03:08:36;0.50;;;0.40;;
55069;SDS011;40967;52.070;8.596;2023-05-10T03:11:09;0.60;;;0.50;;
55069;SDS011;40967;52.070;8.596;2023-05-10T03:13:42;0.70;;;0.50;;
55069;SDS011;40967;52.070;8.596;2023-05-10T03:16:15;1.17;;;0.60;;
55069;SDS011;40967;52.070;8.596;2023-05-10T03:18:50;0.70;;;0.60;;
55069;SDS011;40967;52.070;8.596;2023-05-10T03:21:23;1.10;;;0.60;;
55069;SDS011;40967;52.070;8.596;2023-05-10T03:23:58;0.83;;;0.60;;
55069;SDS011;40967;52.070;8.596;2023-05-10T03:26:30;1.40;;;0.80;;
55069;SDS011;40967;52.070;8.596;2023-05-10T03:28:56;0.90;;;0.70;;
55069;SDS011;40967;52.070;8.596;2023-05-10T03:31:24;0.85;;;0.70;;
55069;SDS011;40967;52.070;8.596;2023-05-10T03:33:50;1.07;;;0.60;;
55069;SDS011;40967;52.070;8.596;2023-05-10T03:36:17;1.00;;;0.70;;
55069;SDS011;40967;52.070;8.596;2023-05-10T03:38:42;1.15;;;0.70;;
55069;SDS011;40967;52.070;8.596;2023-05-10T03:41:08;1.10;;;0.80;;
55069;SDS011;40967;52.070;8.596;2023-05-10T03:43:33;2.10;;;1.20;;
55069;SDS011;40967;52.070;8.596;2023-05-10T03:46:01;1.97;;;1.20;;
55069;SDS011;40967;52.070;8.596;2023-05-10T03:48:27;1.83;;;1.10;;
55069;SDS011;40967;52.070;8.596;2023-05-10T03:50:52;1.63;;;1.07;;
55069;SDS011;40967;52.070;8.596;2023-05-10T03:53:18;2.00;;;1.13;;
55069;SDS011;40967;52.070;8.596;2023-05-10T03:55:43;1.40;;;1.00;;
55069;SDS011;40967;52.070;8.596;2023-05-10T03:58:12;2.60;;;1.50;;
55069;SDS011;40967;52.070;8.596;2023-05-10T04:00:38;1.60;;;1.10;;
55069;SDS011;40967;52.070;8.596;2023-05-10T04:03:13;2.20;;;1.40;;
55069;SDS011;40967;52.070;8.596;2023-05-10T04:05:38;1.85;;;1.20;;
55069;SDS011;40967;52.070;8.596;2023-05-10T04:08:04;2.53;;;1.55;;
55069;SDS011;40967;52.070;8.596;2023-05-10T04:10:31;1.65;;;1.17;;
55069;SDS011;40967;52.070;8.596;2023-05-10T04:12:56;1.83;;;1.10;;
55069;SDS011;40967;52.070;8.596;2023-05-10T04:15:22;1.63;;;1.10;;
55069;SDS011;40967;52.070;8.596;2023-05-10T04:17:47;1.80;;;1.30;;
55069;SDS011;40967;52.070;8.596;2023-05-10T04:20:13;1.60;;;1.10;;
55069;SDS011;40967;52.070;8.596;2023-05-10T04:22:39;2.03;;;1.20;;
55069;SDS011;40967;52.070;8.596;2023-05-10T04:25:04;2.20;;;1.40;;
55069;SDS011;40967;52.070;8.596;2023-05-10T04:27:31;1.42;;;0.90;;
55069;SDS011;40967;52.070;8.596;2023-05-10T04:29:56;1.57;;;1.10;;
55069;SDS011;40967;52.070;8.596;2023-05-10T04:32:22;2.05;;;1.20;;
55069;SDS011;40967;52.070;8.596;2023-05-10T04:34:48;1.63;;;0.90;;
55069;SDS011;40967;52.070;8.596;2023-05-10T04:37:14;1.63;;;0.80;;
55069;SDS011;40967;52.070;8.596;2023-05-10T04:39:39;1.50;;;0.70;;
55069;SDS011;40967;52.070;8.596;2023-05-10T04:42:05;0.50;;;0.40;;
55069;SDS011;40967;52.070;8.596;2023-05-10T04:44:31;0.80;;;0.50;;
55069;SDS011;40967;52.070;8.596;2023-05-10T04:46:56;0.85;;;0.38;;
55069;SDS011;40967;52.070;8.596;2023-05-10T04:49:27;0.80;;;0.50;;
55069;SDS011;40967;52.070;8.596;2023-05-10T04:51:52;0.80;;;0.40;;
55069;SDS011;40967;52.070;8.596;2023-05-10T04:54:18;0.83;;;0.60;;
55069;SDS011;40967;52.070;8.596;2023-05-10T04:56:44;0.40;;;0.40;;
55069;SDS011;40967;52.070;8.596;2023-05-10T04:59:09;0.87;;;0.43;;
55069;SDS011;40967;52.070;8.596;2023-05-10T05:01:35;0.57;;;0.40;;
55069;SDS011;40967;52.070;8.596;2023-05-10T05:04:00;0.73;;;0.33;;
55069;SDS011;40967;52.070;8.596;2023-05-10T05:06:26;0.50;;;0.40;;
55069;SDS011;40967;52.070;8.596;2023-05-10T05:08:52;0.32;;;0.30;;
55069;SDS011;40967;52.070;8.596;2023-05-10T05:11:17;0.30;;;0.30;;
55069;SDS011;40967;52.070;8.596;2023-05-10T05:13:43;0.60;;;0.33;;
55069;SDS011;40967;52.070;8.596;2023-05-10T05:16:09;0.82;;;0.40;;
55069;SDS011;40967;52.070;8.596;2023-05-10T05:18:38;0.22;;;0.22;;
55069;SDS011;40967;52.070;8.596;2023-05-10T05:21:16;0.40;;;0.32;;
55069;SDS011;40967;52.070;8.596;2023-05-10T05:23:43;0.55;;;0.30;;
55069;SDS011;40967;52.070;8.596;2023-05-10T05:26:08;0.30;;;0.23;;
55069;SDS011;40967;52.070;8.596;2023-05-10T05:28:37;0.50;;;0.40;;
55069;SDS011;40967;52.070;8.596;2023-05-10T05:31:05;0.85;;;0.50;;
55069;SDS011;40967;52.070;8.596;2023-05-10T05:33:35;0.60;;;0.40;;
55069;SDS011;40967;52.070;8.596;2023-05-10T05:36:03;0.70;;;0.38;;
55069;SDS011;40967;52.070;8.596;2023-05-10T05:38:30;0.28;;;0.28;;
55069;SDS011;40967;52.070;8.596;2023-05-10T05:40:56;0.37;;;0.37;;
55069;SDS011;40967;52.070;8.596;2023-05-10T05:43:22;0.65;;;0.50;;
55069;SDS011;40967;52.070;8.596;2023-05-10T05:45:48;1.30;;;0.80;;
55069;SDS011;40967;52.070;8.596;2023-05-10T05:48:13;0.60;;;0.53;;
55069;SDS011;40967;52.070;8.596;2023-05-10T05:50:39;1.00;;;0.70;;
55069;SDS011;40967;52.070;8.596;2023-05-10T05:53:07;1.40;;;0.95;;
55069;SDS011;40967;52.070;8.596;2023-05-10T05:55:33;1.80;;;1.13;;
55069;SDS011;40967;52.070;8.596;2023-05-10T05:57:59;1.45;;;0.93;;
55069;SDS011;40967;52.070;8.596;2023-05-10T06:00:24;1.67;;;1.20;;
55069;SDS011;40967;52.070;8.596;2023-05-10T06:02:50;1.47;;;1.00;;
55069;SDS011;40967;52.070;8.596;2023-05-10T06:05:16;1.23;;;0.90;;
55069;SDS011;40967;52.070;8.596;2023-05-10T06:07:41;1.90;;;1.10;;
55069;SDS011;40967;52.070;8.596;2023-05-10T06:10:08;1.42;;;0.82;;
55069;SDS011;40967;52.070;8.596;2023-05-10T06:12:34;1.42;;;0.93;;
55069;SDS011;40967;52.070;8.596;2023-05-10T06:15:00;1.50;;;0.98;;
55069;SDS011;40967;52.070;8.596;2023-05-10T06:17:25;1.57;;;0.90;;
55069;SDS011;40967;52.070;8.596;2023-05-10T06:19:51;1.60;;;0.90;;
55069;SDS011;40967;52.070;8.596;2023-05-10T06:22:16;1.60;;;0.90;;
55069;SDS011;40967;52.070;8.596;2023-05-10T06:24:44;1.10;;;0.80;;
55069;SDS011;40967;52.070;8.596;2023-05-10T06:27:10;0.90;;;0.70;;
55069;SDS011;40967;52.070;8.596;2023-05-10T06:29:35;1.13;;;0.70;;
55069;SDS011;40967;52.070;8.596;2023-05-10T06:32:01;0.80;;;0.60;;
55069;SDS011;40967;52.070;8.596;2023-05-10T06:34:26;0.73;;;0.50;;
55069;SDS011;40967;52.070;8.596;2023-05-10T06:36:51;0.70;;;0.57;;
55069;SDS011;40967;52.070;8.596;2023-05-10T06:39:17;0.73;;;0.40;;
55069;SDS011;40967;52.070;8.596;2023-05-10T06:41:43;1.37;;;0.93;;
55069;SDS011;40967;52.070;8.596;2023-05-10T06:44:08;1.10;;;0.70;;
55069;SDS011;40967;52.070;8.596;2023-05-10T06:46:34;1.20;;;0.80;;
55069;SDS011;40967;52.070;8.596;2023-05-10T06:49:00;1.75;;;1.00;;
55069;SDS011;40967;52.070;8.596;2023-05-10T06:51:25;2.30;;;0.90;;
55069;SDS011;40967;52.070;8.596;2023-05-10T06:53:51;1.37;;;0.70;;
55069;SDS011;40967;52.070;8.596;2023-05-10T06:56:16;1.10;;;0.70;;
55069;SDS011;40967;52.070;8.596;2023-05-10T06:58:42;0.90;;;0.70;;
55069;SDS011;40967;52.070;8.596;2023-05-10T07:01:07;0.90;;;0.60;;
55069;SDS011;40967;52.070;8.596;2023-05-10T07:03:33;1.63;;;0.80;;
55069;SDS011;40967;52.070;8.596;2023-05-10T07:06:02;0.80;;;0.60;;
55069;SDS011;40967;52.070;8.596;2023-05-10T07:08:35;1.15;;;0.65;;
55069;SDS011;40967;52.070;8.596;2023-05-10T07:11:04;1.73;;;0.70;;
55069;SDS011;40967;52.070;8.596;2023-05-10T07:13:32;1.55;;;0.70;;
55069;SDS011;40967;52.070;8.596;2023-05-10T07:15:58;0.70;;;0.50;;
55069;SDS011;40967;52.070;8.596;2023-05-10T07:18:24;0.80;;;0.50;;
55069;SDS011;40967;52.070;8.596;2023-05-10T07:20:50;0.93;;;0.68;;
55069;SDS011;40967;52.070;8.596;2023-05-10T07:23:16;0.67;;;0.50;;
55069;SDS011;40967;52.070;8.596;2023-05-10T07:25:45;1.40;;;0.80;;
55069;SDS011;40967;52.070;8.596;2023-05-10T07:28:15;1.52;;;0.70;;
55069;SDS011;40967;52.070;8.596;2023-05-10T07:30:41;1.23;;;0.63;;
55069;SDS011;40967;52.070;8.596;2023-05-10T07:33:08;0.80;;;0.57;;
55069;SDS011;40967;52.070;8.596;2023-05-10T07:35:34;0.75;;;0.50;;
55069;SDS011;40967;52.070;8.596;2023-05-10T07:38:00;1.15;;;0.60;;
55069;SDS011;40967;52.070;8.596;2023-05-10T07:40:26;0.98;;;0.60;;
55069;SDS011;40967;52.070;8.596;2023-05-10T07:42:52;1.02;;;0.60;;
55069;SDS011;40967;52.070;8.596;2023-05-10T07:45:18;2.40;;;1.20;;
55069;SDS011;40967;52.070;8.596;2023-05-10T07:47:43;1.50;;;0.80;;
55069;SDS011;40967;52.070;8.596;2023-05-10T07:50:09;1.70;;;0.87;;
55069;SDS011;40967;52.070;8.596;2023-05-10T07:52:34;2.00;;;0.93;;
55069;SDS011;40967;52.070;8.596;2023-05-10T07:55:00;2.20;;;1.00;;
55069;SDS011;40967;52.070;8.596;2023-05-10T07:57:25;2.42;;;1.40;;
55069;SDS011;40967;52.070;8.596;2023-05-10T07:59:51;3.38;;;1.70;;
55069;SDS011;40967;52.070;8.596;2023-05-10T08:02:16;2.03;;;1.10;;
55069;SDS011;40967;52.070;8.596;2023-05-10T08:04:42;1.73;;;0.90;;
55069;SDS011;40967;52.070;8.596;2023-05-10T08:07:10;1.70;;;1.00;;
55069;SDS011;40967;52.070;8.596;2023-05-10T08:09:36;1.73;;;1.00;;
55069;SDS011;40967;52.070;8.596;2023-05-10T08:12:01;1.50;;;0.80;;
55069;SDS011;40967;52.070;8.596;2023-05-10T08:14:28;1.60;;;0.93;;
55069;SDS011;40967;52.070;8.596;2023-05-10T08:16:54;2.00;;;1.10;;
55069;SDS011;40967;52.070;8.596;2023-05-10T08:19:19;2.45;;;1.40;;
55069;SDS011;40967;52.070;8.596;2023-05-10T08:21:46;2.50;;;1.50;;
55069;SDS011;40967;52.070;8.596;2023-05-10T08:24:11;2.80;;;1.47;;
55069;SDS011;40967;52.070;8.596;2023-05-10T08:26:37;3.17;;;1.80;;
55069;SDS011;40967;52.070;8.596;2023-05-10T08:29:02;2.80;;;1.70;;
55069;SDS011;40967;52.070;8.596;2023-05-10T08:31:28;2.40;;;1.40;;
55069;SDS011;40967;52.070;8.596;2023-05-10T08:33:56;3.90;;;2.30;;
55069;SDS011;40967;52.070;8.596;2023-05-10T08:36:40;4.13;;;2.30;;
55069;SDS011;40967;52.070;8.596;2023-05-10T08:39:06;5.47;;;3.13;;
55069;SDS011;40967;52.070;8.596;2023-05-10T08:41:31;5.10;;;3.20;;
55069;SDS011;40967;52.070;8.596;2023-05-10T08:44:02;5.18;;;3.15;;
55069;SDS011;40967;52.070;8.596;2023-05-10T08:46:29;3.83;;;2.20;;
55069;SDS011;40967;52.070;8.596;2023-05-10T08:48:55;4.32;;;2.60;;
55069;SDS011;40967;52.070;8.596;2023-05-10T08:51:24;3.97;;;2.30;;
55069;SDS011;40967;52.070;8.596;2023-05-10T08:53:52;4.47;;;2.70;;
55069;SDS011;40967;52.070;8.596;2023-05-10T08:56:17;4.13;;;2.40;;
55069;SDS011;40967;52.070;8.596;2023-05-10T08:58:44;3.50;;;2.03;;
55069;SDS011;40967;52.070;8.596;2023-05-10T09:01:10;5.73;;;3.13;;
55069;SDS011;40967;52.070;8.596;2023-05-10T09:03:40;4.38;;;2.55;;
55069;SDS011;40967;52.070;8.596;2023-05-10T09:06:06;5.10;;;3.20;;
55069;SDS011;40967;52.070;8.596;2023-05-10T09:08:31;5.18;;;3.00;;
55069;SDS011;40967;52.070;8.596;2023-05-10T09:10:57;4.57;;;2.60;;
55069;SDS011;40967;52.070;8.596;2023-05-10T09:13:24;7.07;;;3.90;;
55069;SDS011;40967;52.070;8.596;2023-05-10T09:15:50;5.50;;;3.33;;
55069;SDS011;40967;52.070;8.596;2023-05-10T09:18:16;8.30;;;4.90;;
55069;SDS011;40967;52.070;8.596;2023-05-10T09:20:41;6.57;;;4.17;;
55069;SDS011;40967;52.070;8.596;2023-05-10T09:23:07;7.07;;;4.20;;
55069;SDS011;40967;52.070;8.596;2023-05-10T09:25:33;9.85;;;6.20;;
55069;SDS011;40967;52.070;8.596;2023-05-10T09:28:01;8.77;;;5.28;;
55069;SDS011;40967;52.070;8.596;2023-05-10T09:30:47;6.90;;;4.40;;
55069;SDS011;40967;52.070;8.596;2023-05-10T09:33:18;7.18;;;4.28;;
55069;SDS011;40967;52.070;8.596;2023-05-10T09:35:43;5.80;;;3.07;;
55069;SDS011;40967;52.070;8.596;2023-05-10T09:38:09;7.27;;;4.43;;
55069;SDS011;40967;52.070;8.596;2023-05-10T09:40:35;6.35;;;3.38;;
55069;SDS011;40967;52.070;8.596;2023-05-10T09:43:01;6.03;;;3.30;;
55069;SDS011;40967;52.070;8.596;2023-05-10T09:45:34;5.25;;;2.90;;
55069;SDS011;40967;52.070;8.596;2023-05-10T09:48:00;4.45;;;2.55;;
55069;SDS011;40967;52.070;8.596;2023-05-10T09:50:27;4.68;;;2.50;;
55069;SDS011;40967;52.070;8.596;2023-05-10T09:52:55;4.70;;;2.72;;
55069;SDS011;40967;52.070;8.596;2023-05-10T09:58:09;6.20;;;3.67;;
55069;SDS011;40967;52.070;8.596;2023-05-10T10:00:44;7.15;;;3.70;;
55069;SDS011;40967;52.070;8.596;2023-05-10T10:03:16;5.40;;;3.00;;
55069;SDS011;40967;52.070;8.596;2023-05-10T10:05:43;7.25;;;3.72;;
55069;SDS011;40967;52.070;8.596;2023-05-10T10:08:10;6.00;;;3.70;;
55069;SDS011;40967;52.070;8.596;2023-05-10T10:10:37;6.22;;;3.72;;
55069;SDS011;40967;52.070;8.596;2023-05-10T10:13:03;5.57;;;3.50;;
55069;SDS011;40967;52.070;8.596;2023-05-10T10:15:29;8.55;;;5.55;;
55069;SDS011;40967;52.070;8.596;2023-05-10T10:17:55;6.37;;;3.97;;
55069;SDS011;40967;52.070;8.596;2023-05-10T10:20:21;12.13;;;6.90;;
55069;SDS011;40967;52.070;8.596;2023-05-10T10:22:49;8.95;;;6.10;;
55069;SDS011;40967;52.070;8.596;2023-05-10T10:25:16;10.17;;;6.40;;
55069;SDS011;40967;52.070;8.596;2023-05-10T10:35:35;8.63;;;5.30;;
55069;SDS011;40967;52.070;8.596;2023-05-10T10:38:01;6.78;;;4.20;;
55069;SDS011;40967;52.070;8.596;2023-05-10T10:40:30;6.23;;;3.73;;
55069;SDS011;40967;52.070;8.596;2023-05-10T10:42:57;6.00;;;3.40;;
55069;SDS011;40967;52.070;8.596;2023-05-10T10:45:24;6.53;;;3.78;;
55069;SDS011;40967;52.070;8.596;2023-05-10T10:47:54;5.90;;;3.50;;
55069;SDS011;40967;52.070;8.596;2023-05-10T10:50:55;6.05;;;3.22;;
55069;SDS011;40967;52.070;8.596;2023-05-10T10:53:25;6.00;;;3.07;;
55069;SDS011;40967;52.070;8.596;2023-05-10T10:55:53;5.53;;;2.95;;
55069;SDS011;40967;52.070;8.596;2023-05-10T10:58:30;4.63;;;2.13;;
55069;SDS011;40967;52.070;8.596;2023-05-10T11:03:55;4.90;;;3.08;;
55069;SDS011;40967;52.070;8.596;2023-05-10T11:06:31;5.85;;;3.17;;
55069;SDS011;40967;52.070;8.596;2023-05-10T11:08:57;4.80;;;2.60;;
55069;SDS011;40967;52.070;8.596;2023-05-10T11:11:23;4.50;;;2.10;;
55069;SDS011;40967;52.070;8.596;2023-05-10T11:13:49;3.90;;;2.20;;
55069;SDS011;40967;52.070;8.596;2023-05-10T11:16:15;4.23;;;2.50;;
55069;SDS011;40967;52.070;8.596;2023-05-10T11:19:07;5.05;;;2.40;;
55069;SDS011;40967;52.070;8.596;2023-05-10T11:24:17;4.68;;;2.83;;
55069;SDS011;40967;52.070;8.596;2023-05-10T11:26:49;4.40;;;2.40;;
55069;SDS011;40967;52.070;8.596;2023-05-10T11:29:16;4.72;;;2.60;;
55069;SDS011;40967;52.070;8.596;2023-05-10T11:31:42;3.50;;;1.98;;
55069;SDS011;40967;52.070;8.596;2023-05-10T11:34:12;3.55;;;1.80;;
55069;SDS011;40967;52.070;8.596;2023-05-10T11:36:51;3.72;;;2.13;;
55069;SDS011;40967;52.070;8.596;2023-05-10T11:39:18;4.55;;;2.33;;
55069;SDS011;40967;52.070;8.596;2023-05-10T11:41:46;3.35;;;1.73;;
55069;SDS011;40967;52.070;8.596;2023-05-10T11:44:13;5.37;;;2.27;;
55069;SDS011;40967;52.070;8.596;2023-05-10T11:46:38;3.85;;;2.20;;
55069;SDS011;40967;52.070;8.596;2023-05-10T11:49:07;3.80;;;2.13;;
55069;SDS011;40967;52.070;8.596;2023-05-10T11:51:33;3.23;;;1.70;;
55069;SDS011;40967;52.070;8.596;2023-05-10T11:54:00;4.88;;;2.83;;
55069;SDS011;40967;52.070;8.596;2023-05-10T11:56:29;4.80;;;2.33;;
55069;SDS011;40967;52.070;8.596;2023-05-10T11:58:57;4.82;;;2.65;;
55069;SDS011;40967;52.070;8.596;2023-05-10T12:01:24;3.70;;;1.83;;
55069;SDS011;40967;52.070;8.596;2023-05-10T12:03:51;4.25;;;2.00;;
55069;SDS011;40967;52.070;8.596;2023-05-10T12:06:18;2.67;;;1.45;;
55069;SDS011;40967;52.070;8.596;2023-05-10T12:08:45;2.70;;;1.52;;
55069;SDS011;40967;52.070;8.596;2023-05-10T12:11:12;3.73;;;1.73;;
55069;SDS011;40967;52.070;8.596;2023-05-10T12:13:42;3.47;;;1.90;;
55069;SDS011;40967;52.070;8.596;2023-05-10T12:16:18;2.72;;;1.48;;
55069;SDS011;40967;52.070;8.596;2023-05-10T12:18:54;2.83;;;1.55;;
55069;SDS011;40967;52.070;8.596;2023-05-10T12:21:21;3.65;;;1.95;;
55069;SDS011;40967;52.070;8.596;2023-05-10T12:23:48;4.07;;;1.90;;
55069;SDS011;40967;52.070;8.596;2023-05-10T12:26:16;2.53;;;1.50;;
55069;SDS011;40967;52.070;8.596;2023-05-10T12:28:41;2.87;;;1.50;;
55069;SDS011;40967;52.070;8.596;2023-05-10T12:31:07;4.55;;;1.88;;
55069;SDS011;40967;52.070;8.596;2023-05-10T12:33:37;3.60;;;2.00;;
55069;SDS011;40967;52.070;8.596;2023-05-10T12:36:04;3.80;;;1.80;;
55069;SDS011;40967;52.070;8.596;2023-05-10T12:38:33;2.83;;;1.50;;
55069;SDS011;40967;52.070;8.596;2023-05-10T12:41:01;2.80;;;1.40;;
55069;SDS011;40967;52.070;8.596;2023-05-10T12:43:28;3.20;;;1.38;;
55069;SDS011;40967;52.070;8.596;2023-05-10T12:45:54;3.87;;;2.03;;
55069;SDS011;40967;52.070;8.596;2023-05-10T12:48:20;2.80;;;1.48;;
55069;SDS011;40967;52.070;8.596;2023-05-10T12:50:46;3.25;;;1.60;;
55069;SDS011;40967;52.070;8.596;2023-05-10T12:53:13;3.00;;;1.58;;
55069;SDS011;40967;52.070;8.596;2023-05-10T12:55:40;2.90;;;1.50;;
55069;SDS011;40967;52.070;8.596;2023-05-10T12:58:06;3.30;;;1.83;;
55069;SDS011;40967;52.070;8.596;2023-05-10T13:00:32;2.83;;;1.63;;
55069;SDS011;40967;52.070;8.596;2023-05-10T13:02:57;3.90;;;1.75;;
55069;SDS011;40967;52.070;8.596;2023-05-10T13:05:23;4.00;;;1.50;;
55069;SDS011;40967;52.070;8.596;2023-05-10T13:07:48;2.50;;;1.37;;
55069;SDS011;40967;52.070;8.596;2023-05-10T13:10:13;3.37;;;2.03;;
55069;SDS011;40967;52.070;8.596;2023-05-10T13:12:39;3.40;;;1.83;;
55069;SDS011;40967;52.070;8.596;2023-05-10T13:15:04;5.30;;;2.83;;
55069;SDS011;40967;52.070;8.596;2023-05-10T13:17:31;3.17;;;2.00;;
55069;SDS011;40967;52.070;8.596;2023-05-10T13:19:57;4.10;;;2.00;;
55069;SDS011;40967;52.070;8.596;2023-05-10T13:22:22;3.43;;;1.90;;
55069;SDS011;40967;52.070;8.596;2023-05-10T13:24:47;3.20;;;1.67;;
55069;SDS011;40967;52.070;8.596;2023-05-10T13:27:13;5.40;;;2.80;;
55069;SDS011;40967;52.070;8.596;2023-05-10T13:29:38;3.83;;;1.83;;
55069;SDS011;40967;52.070;8.596;2023-05-10T13:32:04;4.53;;;2.20;;
55069;SDS011;40967;52.070;8.596;2023-05-10T13:34:29;3.40;;;1.90;;
55069;SDS011;40967;52.070;8.596;2023-05-10T13:36:55;2.78;;;1.35;;
55069;SDS011;40967;52.070;8.596;2023-05-10T13:39:21;3.58;;;2.00;;
55069;SDS011;40967;52.070;8.596;2023-05-10T13:41:47;4.80;;;2.40;;
55069;SDS011;40967;52.070;8.596;2023-05-10T13:44:13;5.18;;;2.60;;
55069;SDS011;40967;52.070;8.596;2023-05-10T13:46:39;6.70;;;3.90;;
55069;SDS011;40967;52.070;8.596;2023-05-10T13:49:05;7.28;;;4.28;;
55069;SDS011;40967;52.070;8.596;2023-05-10T13:51:31;6.80;;;3.90;;
55069;SDS011;40967;52.070;8.596;2023-05-10T13:53:56;5.80;;;3.33;;
55069;SDS011;40967;52.070;8.596;2023-05-10T13:56:22;5.72;;;3.22;;
55069;SDS011;40967;52.070;8.596;2023-05-10T13:58:48;7.43;;;3.80;;
55069;SDS011;40967;52.070;8.596;2023-05-10T14:01:13;7.87;;;4.10;;
55069;SDS011;40967;52.070;8.596;2023-05-10T14:03:39;4.63;;;2.60;;
55069;SDS011;40967;52.070;8.596;2023-05-10T14:06:04;10.80;;;6.13;;
55069;SDS011;40967;52.070;8.596;2023-05-10T14:08:32;9.17;;;5.17;;
55069;SDS011;40967;52.070;8.596;2023-05-10T14:10:58;6.20;;;3.53;;
55069;SDS011;40967;52.070;8.596;2023-05-10T14:13:23;8.97;;;5.13;;
55069;SDS011;40967;52.070;8.596;2023-05-10T14:15:49;7.25;;;3.90;;
55069;SDS011;40967;52.070;8.596;2023-05-10T14:18:15;6.60;;;3.92;;
55069;SDS011;40967;52.070;8.596;2023-05-10T14:20:41;5.60;;;3.40;;
55069;SDS011;40967;52.070;8.596;2023-05-10T14:23:06;4.73;;;2.60;;
55069;SDS011;40967;52.070;8.596;2023-05-10T14:25:32;4.43;;;2.10;;
55069;SDS011;40967;52.070;8.596;2023-05-10T14:27:58;4.47;;;2.20;;
55069;SDS011;40967;52.070;8.596;2023-05-10T14:30:23;3.55;;;1.95;;
55069;SDS011;40967;52.070;8.596;2023-05-10T14:32:49;2.97;;;1.53;;
55069;SDS011;40967;52.070;8.596;2023-05-10T14:35:15;2.33;;;1.30;;
55069;SDS011;40967;52.070;8.596;2023-05-10T14:37:40;2.28;;;1.20;;
55069;SDS011;40967;52.070;8.596;2023-05-10T14:40:06;1.95;;;1.15;;
55069;SDS011;40967;52.070;8.596;2023-05-10T14:42:32;1.95;;;1.00;;
55069;SDS011;40967;52.070;8.596;2023-05-10T14:44:58;2.23;;;1.10;;
55069;SDS011;40967;52.070;8.596;2023-05-10T14:47:23;1.70;;;1.10;;
55069;SDS011;40967;52.070;8.596;2023-05-10T14:49:48;2.73;;;1.40;;
55069;SDS011;40967;52.070;8.596;2023-05-10T14:52:14;2.83;;;1.53;;
55069;SDS011;40967;52.070;8.596;2023-05-10T14:54:40;2.63;;;1.60;;
55069;SDS011;40967;52.070;8.596;2023-05-10T14:57:06;2.15;;;1.20;;
55069;SDS011;40967;52.070;8.596;2023-05-10T14:59:31;2.50;;;1.30;;
55069;SDS011;40967;52.070;8.596;2023-05-10T15:01:57;2.00;;;1.20;;
55069;SDS011;40967;52.070;8.596;2023-05-10T15:04:23;2.13;;;1.20;;
55069;SDS011;40967;52.070;8.596;2023-05-10T15:06:48;3.40;;;1.58;;
55069;SDS011;40967;52.070;8.596;2023-05-10T15:09:13;2.70;;;1.45;;
55069;SDS011;40967;52.070;8.596;2023-05-10T15:11:40;2.30;;;1.23;;
55069;SDS011;40967;52.070;8.596;2023-05-10T15:14:05;2.47;;;1.30;;
55069;SDS011;40967;52.070;8.596;2023-05-10T15:16:31;3.43;;;1.90;;